createdAt,value
2018-02-14T00:00:28.863Z,124.44
2018-02-14T00:01:34.355Z,124.9447
2018-02-14T00:02:39.554Z,123.6817
2018-02-14T00:03:45.047Z,124.1864
2018-02-14T00:04:49.977Z,124.44
2018-02-14T00:05:54.036Z,123.6817
2018-02-14T00:06:57.844Z,124.6937
2018-02-14T00:08:02.206Z,124.1864
2018-02-14T00:09:06.567Z,124.44
2018-02-14T00:10:12.129Z,123.177
2018-02-14T00:11:17.308Z,123.177
2018-02-14T00:12:22.528Z,123.9353
2018-02-14T00:13:28.005Z,123.9353
2018-02-14T00:14:33.489Z,124.44
2018-02-14T00:15:39.284Z,123.6817
2018-02-14T00:16:44.745Z,123.6817
2018-02-14T00:17:49.949Z,123.0079
2018-02-14T00:18:55.675Z,123.428
2018-02-14T00:20:00.871Z,123.6817
2018-02-14T00:21:05.788Z,123.428
2018-02-14T00:22:10.982Z,123.0079
2018-02-14T00:23:16.198Z,122.2495
2018-02-14T00:24:21.412Z,122.5032
2018-02-14T00:25:41.266Z,123.177
2018-02-14T00:26:46.715Z,122.5032
2018-02-14T00:27:53.082Z,122.2495
2018-02-14T00:28:58.271Z,122.7542
2018-02-14T00:30:03.463Z,122.7542
2018-02-14T00:31:09.728Z,123.0079
2018-02-14T00:32:14.894Z,123.177
2018-02-14T00:33:20.382Z,123.0079
2018-02-14T00:34:25.308Z,122.7542
2018-02-14T00:35:30.203Z,123.428
2018-02-14T00:36:35.128Z,122.5032
2018-02-14T00:37:38.602Z,122.7542
2018-02-14T00:38:42.967Z,122.2495
2018-02-14T00:39:47.854Z,122.2495
2018-02-14T00:40:52.190Z,121.9985
2018-02-14T00:41:55.968Z,122.2495
2018-02-14T00:43:00.451Z,121.9985
2018-02-14T00:44:04.517Z,122.5032
2018-02-14T00:45:09.122Z,122.2495
2018-02-14T00:46:13.862Z,122.5032
2018-02-14T00:47:18.211Z,121.9985
2018-02-14T00:48:22.552Z,121.9985
2018-02-14T00:49:26.910Z,121.9985
2018-02-14T00:50:31.528Z,121.9985
2018-02-14T00:51:35.705Z,122.2495
2018-02-14T00:52:39.463Z,121.7449
2018-02-14T00:53:43.230Z,121.9985
2018-02-14T00:54:47.370Z,122.2495
2018-02-14T00:55:50.866Z,121.4912
2018-02-14T00:56:55.188Z,121.9985
2018-02-14T00:58:00.562Z,121.7449
2018-02-14T00:59:05.765Z,121.9985
2018-02-14T01:00:10.949Z,121.7449
2018-02-14T01:01:16.721Z,121.4912
2018-02-14T01:02:21.904Z,121.7449
2018-02-14T01:03:27.781Z,121.4912
2018-02-14T01:04:32.668Z,121.2402
2018-02-14T01:05:37.868Z,121.2402
2018-02-14T01:06:43.080Z,120.4818
2018-02-14T01:07:48.536Z,120.3127
2018-02-14T01:08:53.732Z,120.4818
2018-02-14T01:09:58.390Z,120.3127
2018-02-14T01:11:03.314Z,121.2402
2018-02-14T01:12:08.470Z,120.4818
2018-02-14T01:13:13.107Z,120.3127
2018-02-14T01:14:18.016Z,120.7328
2018-02-14T01:15:22.938Z,119.5544
2018-02-14T01:16:28.439Z,119.5544
2018-02-14T01:17:33.340Z,118.7987
2018-02-14T01:18:38.921Z,119.5544
2018-02-14T01:19:44.387Z,119.3034
2018-02-14T01:20:49.573Z,119.808
2018-02-14T01:21:54.590Z,118.7987
2018-02-14T01:23:00.065Z,119.5544
2018-02-14T01:24:05.536Z,119.0497
2018-02-14T01:25:11.027Z,119.0497
2018-02-14T01:26:15.677Z,119.3034
2018-02-14T01:27:21.161Z,119.0497
2018-02-14T01:28:27.384Z,119.0497
2018-02-14T01:29:32.867Z,119.0497
2018-02-14T01:30:38.887Z,118.545
2018-02-14T01:31:44.353Z,118.545
2018-02-14T01:32:49.837Z,118.545
2018-02-14T01:33:55.755Z,118.0403
2018-02-14T01:35:00.917Z,118.7987
2018-02-14T01:36:06.111Z,118.7987
2018-02-14T01:37:11.655Z,118.2913
2018-02-14T01:38:16.841Z,116.8618
2018-02-14T01:39:22.053Z,118.0403
2018-02-14T01:40:28.286Z,118.0403
2018-02-14T01:41:33.749Z,118.7987
2018-02-14T01:42:39.530Z,118.2913
2018-02-14T01:43:45.015Z,117.8712
2018-02-14T01:44:50.185Z,118.0403
2018-02-14T01:45:55.972Z,118.0403
2018-02-14T01:47:01.161Z,117.6176
2018-02-14T01:48:06.058Z,117.6176
2018-02-14T01:49:11.857Z,118.0403
2018-02-14T01:50:17.359Z,117.1129
2018-02-14T01:51:22.820Z,117.1129
2018-02-14T01:52:28.014Z,118.0403
2018-02-14T01:53:33.214Z,117.8712
2018-02-14T01:54:39.145Z,118.0403
2018-02-14T01:55:44.615Z,117.3665
2018-02-14T01:56:50.104Z,117.6176
2018-02-14T01:57:56.064Z,117.8712
2018-02-14T01:59:01.528Z,117.3665
2018-02-14T02:00:07.017Z,116.6082
2018-02-14T02:01:12.795Z,117.6176
2018-02-14T02:02:18.295Z,117.1129
2018-02-14T02:03:23.505Z,117.6176
2018-02-14T02:04:29.416Z,116.1035
2018-02-14T02:05:34.604Z,117.1129
2018-02-14T02:06:40.371Z,116.1035
2018-02-14T02:07:45.559Z,117.1129
2018-02-14T02:08:50.776Z,117.1129
2018-02-14T02:09:56.545Z,117.1129
2018-02-14T02:11:01.458Z,117.1129
2018-02-14T02:12:06.087Z,117.6176
2018-02-14T02:13:11.303Z,116.6082
2018-02-14T02:14:15.927Z,116.6082
2018-02-14T02:15:21.417Z,117.1129
2018-02-14T02:16:26.613Z,116.6082
2018-02-14T02:17:32.089Z,117.1129
2018-02-14T02:18:37.677Z,117.1129
2018-02-14T02:19:43.141Z,116.6082
2018-02-14T02:20:48.604Z,117.1129
2018-02-14T02:21:54.073Z,116.1035
2018-02-14T02:22:59.533Z,116.6082
2018-02-14T02:24:04.747Z,117.1129
2018-02-14T02:25:10.211Z,116.1035
2018-02-14T02:26:15.676Z,116.8618
2018-02-14T02:27:21.182Z,116.1035
2018-02-14T02:28:26.653Z,116.6082
2018-02-14T02:29:32.122Z,117.1129
2018-02-14T02:30:37.329Z,117.6176
2018-02-14T02:31:42.535Z,117.1129
2018-02-14T02:32:48.005Z,117.1129
2018-02-14T02:33:53.235Z,117.1129
2018-02-14T02:34:58.702Z,116.6082
2018-02-14T02:36:03.884Z,117.1129
2018-02-14T02:37:09.078Z,117.3665
2018-02-14T02:38:14.532Z,116.8618
2018-02-14T02:39:19.708Z,116.6082
2018-02-14T02:40:25.908Z,117.1129
2018-02-14T02:41:30.808Z,117.1129
2018-02-14T02:42:36.824Z,117.1129
2018-02-14T02:43:42.283Z,116.1035
2018-02-14T02:44:47.448Z,116.6082
2018-02-14T02:45:52.994Z,116.1035
2018-02-14T02:46:58.163Z,117.1129
2018-02-14T02:48:03.645Z,116.6082
2018-02-14T02:49:09.409Z,116.3572
2018-02-14T02:50:14.618Z,116.3572
2018-02-14T02:51:20.104Z,116.3572
2018-02-14T02:52:25.862Z,116.3572
2018-02-14T02:53:31.063Z,116.3572
2018-02-14T02:54:37.110Z,115.5988
2018-02-14T02:55:42.588Z,116.3572
2018-02-14T02:56:47.790Z,116.1035
2018-02-14T02:57:53.296Z,115.5988
2018-02-14T02:58:58.521Z,116.1035
2018-02-14T03:00:03.696Z,116.1035
2018-02-14T03:01:08.632Z,115.5988
2018-02-14T03:02:14.155Z,114.6714
2018-02-14T03:03:19.626Z,115.4297
2018-02-14T03:04:25.110Z,116.1035
2018-02-14T03:05:30.285Z,114.925
2018-02-14T03:06:35.704Z,115.1787
2018-02-14T03:07:41.199Z,115.1787
2018-02-14T03:08:46.393Z,115.1787
2018-02-14T03:09:51.383Z,115.5988
2018-02-14T03:10:56.860Z,115.5988
2018-02-14T03:12:01.767Z,113.9157
2018-02-14T03:13:06.994Z,114.4203
2018-02-14T03:14:12.470Z,115.5988
2018-02-14T03:15:17.638Z,115.1787
2018-02-14T03:16:23.410Z,114.4203
2018-02-14T03:17:28.589Z,115.4297
2018-02-14T03:18:34.607Z,114.6714
2018-02-14T03:19:39.792Z,114.925
2018-02-14T03:20:45.266Z,114.6714
2018-02-14T03:21:51.200Z,114.6714
2018-02-14T03:22:56.663Z,114.6714
2018-02-14T03:24:01.291Z,114.4203
2018-02-14T03:25:07.064Z,114.1667
2018-02-14T03:26:11.990Z,113.4929
2018-02-14T03:27:17.440Z,113.9157
2018-02-14T03:28:22.956Z,114.1667
2018-02-14T03:29:28.430Z,113.662
2018-02-14T03:30:33.910Z,113.662
2018-02-14T03:31:38.823Z,114.1667
2018-02-14T03:32:44.354Z,113.9157
2018-02-14T03:33:50.269Z,115.1787
2018-02-14T03:34:55.732Z,114.1667
2018-02-14T03:36:00.651Z,114.1667
2018-02-14T03:37:06.012Z,114.1667
2018-02-14T03:38:11.978Z,113.4929
2018-02-14T03:39:17.162Z,113.662
2018-02-14T03:40:22.387Z,113.9157
2018-02-14T03:41:27.556Z,113.662
2018-02-14T03:42:32.951Z,113.2419
2018-02-14T03:43:38.434Z,113.2419
2018-02-14T03:44:43.619Z,112.8217
2018-02-14T03:45:49.656Z,112.8217
2018-02-14T03:46:54.829Z,113.2419
2018-02-14T03:48:00.293Z,113.4929
2018-02-14T03:49:05.236Z,112.9882
2018-02-14T03:50:10.730Z,112.8217
2018-02-14T03:51:15.931Z,112.9882
2018-02-14T03:52:21.696Z,112.8217
2018-02-14T03:53:26.878Z,112.8217
2018-02-14T03:54:32.849Z,112.8217
2018-02-14T03:55:38.317Z,113.2419
2018-02-14T03:56:43.207Z,112.8217
2018-02-14T03:57:49.234Z,112.9882
2018-02-14T03:58:54.703Z,113.4929
2018-02-14T04:00:00.166Z,112.3171
2018-02-14T04:01:05.364Z,111.8124
2018-02-14T04:02:10.261Z,112.5681
2018-02-14T04:03:15.722Z,110.803
2018-02-14T04:04:21.599Z,111.8124
2018-02-14T04:05:26.773Z,110.803
2018-02-14T04:06:32.693Z,111.5587
2018-02-14T04:07:38.164Z,110.5493
2018-02-14T04:08:43.629Z,110.3802
2018-02-14T04:09:49.429Z,111.054
2018-02-14T04:10:54.049Z,109.8756
2018-02-14T04:11:59.232Z,110.3802
2018-02-14T04:13:04.878Z,109.3709
2018-02-14T04:14:10.046Z,109.8756
2018-02-14T04:15:15.251Z,110.1292
2018-02-14T04:16:21.128Z,110.3802
2018-02-14T04:17:26.638Z,109.6245
2018-02-14T04:18:32.402Z,110.803
2018-02-14T04:19:37.586Z,108.8662
2018-02-14T04:20:43.051Z,109.6245
2018-02-14T04:21:47.968Z,109.8756
2018-02-14T04:22:52.875Z,109.6245
2018-02-14T04:23:58.038Z,109.1199
2018-02-14T04:25:03.262Z,109.6245
2018-02-14T04:26:07.890Z,108.8662
2018-02-14T04:27:13.399Z,108.3615
2018-02-14T04:28:19.130Z,108.8662
2018-02-14T04:29:24.317Z,109.3709
2018-02-14T04:30:30.180Z,108.3615
2018-02-14T04:31:35.650Z,108.8662
2018-02-14T04:32:40.832Z,108.1105
2018-02-14T04:33:46.576Z,108.3615
2018-02-14T04:34:52.055Z,107.9414
2018-02-14T04:35:56.939Z,108.3615
2018-02-14T04:37:02.085Z,107.6877
2018-02-14T04:38:07.305Z,107.4367
2018-02-14T04:39:12.464Z,107.1857
2018-02-14T04:40:17.628Z,106.681
2018-02-14T04:41:23.108Z,107.1857
2018-02-14T04:42:28.693Z,107.6877
2018-02-14T04:43:34.105Z,106.681
2018-02-14T04:44:38.999Z,107.9414
2018-02-14T04:45:44.720Z,107.9414
2018-02-14T04:46:49.916Z,106.681
2018-02-14T04:47:55.117Z,107.1857
2018-02-14T04:49:00.549Z,106.932
2018-02-14T04:50:05.737Z,106.4273
2018-02-14T04:51:10.917Z,105.9226
2018-02-14T04:52:16.654Z,105.9226
2018-02-14T04:53:22.103Z,105.9226
2018-02-14T04:54:27.885Z,105.9226
2018-02-14T04:55:33.078Z,106.1763
2018-02-14T04:56:38.283Z,105.9226
2018-02-14T04:57:43.703Z,105.2489
2018-02-14T04:58:49.174Z,105.2489
2018-02-14T04:59:54.083Z,105.6716
2018-02-14T05:00:59.708Z,104.5777
2018-02-14T05:02:04.901Z,105.2489
2018-02-14T05:03:09.623Z,105.5025
2018-02-14T05:04:14.948Z,105.5025
2018-02-14T05:05:20.144Z,104.073
2018-02-14T05:06:40.625Z,105.2489
2018-02-14T05:07:45.820Z,106.1763
2018-02-14T05:08:51.289Z,104.9978
2018-02-14T05:09:56.996Z,105.5025
2018-02-14T05:11:02.185Z,104.9978
2018-02-14T05:12:06.817Z,105.2489
2018-02-14T05:13:11.991Z,103.822
2018-02-14T05:14:17.457Z,104.5777
2018-02-14T05:15:22.660Z,105.2489
2018-02-14T05:16:28.238Z,104.5777
2018-02-14T05:17:33.710Z,104.5777
2018-02-14T05:18:39.581Z,105.2489
2018-02-14T05:19:44.769Z,104.324
2018-02-14T05:20:50.238Z,105.2489
2018-02-14T05:21:55.948Z,104.5777
2018-02-14T05:23:01.412Z,105.5025
2018-02-14T05:24:06.617Z,104.073
2018-02-14T05:25:12.372Z,104.5777
2018-02-14T05:26:17.560Z,104.073
2018-02-14T05:27:22.483Z,104.9978
2018-02-14T05:28:27.913Z,104.9978
2018-02-14T05:29:32.790Z,104.5777
2018-02-14T05:30:38.320Z,104.073
2018-02-14T05:31:43.222Z,103.5683
2018-02-14T05:32:48.701Z,104.5777
2018-02-14T05:33:54.210Z,103.3173
2018-02-14T05:34:59.663Z,103.5683
2018-02-14T05:36:04.863Z,103.3173
2018-02-14T05:37:10.681Z,104.324
2018-02-14T05:38:16.140Z,104.073
2018-02-14T05:39:21.347Z,103.3173
2018-02-14T05:40:41.282Z,104.073
2018-02-14T05:41:46.481Z,103.3173
2018-02-14T05:42:52.403Z,103.5683
2018-02-14T05:43:57.870Z,102.3925
2018-02-14T05:45:03.336Z,103.3173
2018-02-14T05:46:07.669Z,102.6435
2018-02-14T05:47:12.875Z,102.1388
2018-02-14T05:48:18.062Z,102.3925
2018-02-14T05:49:23.881Z,103.0637
2018-02-14T05:50:29.053Z,102.6435
2018-02-14T05:51:34.645Z,102.6435
2018-02-14T05:52:40.122Z,103.5683
2018-02-14T05:53:45.589Z,103.0637
2018-02-14T05:54:51.976Z,103.0637
2018-02-14T05:55:57.176Z,103.0637
2018-02-14T05:57:02.351Z,102.6435
2018-02-14T05:58:08.164Z,103.0637
2018-02-14T05:59:13.622Z,102.8972
2018-02-14T06:00:19.105Z,102.3925
2018-02-14T06:01:24.328Z,102.8972
2018-02-14T06:02:29.797Z,102.6435
2018-02-14T06:03:35.377Z,103.0637
2018-02-14T06:04:40.269Z,102.6435
2018-02-14T06:05:45.735Z,102.8972
2018-02-14T06:06:51.550Z,102.6435
2018-02-14T06:07:56.467Z,103.0637
2018-02-14T06:09:01.958Z,102.3925
2018-02-14T06:10:07.175Z,102.1388
2018-02-14T06:11:12.661Z,102.3925
2018-02-14T06:12:17.856Z,102.3925
2018-02-14T06:13:22.727Z,101.6342
2018-02-14T06:14:27.921Z,101.8878
2018-02-14T06:15:33.902Z,101.6342
2018-02-14T06:16:39.407Z,102.1388
2018-02-14T06:17:44.871Z,102.3925
2018-02-14T06:18:50.594Z,101.6342
2018-02-14T06:19:56.055Z,101.6342
2018-02-14T06:21:01.233Z,101.1295
2018-02-14T06:22:06.659Z,101.1295
2018-02-14T06:23:11.573Z,101.6342
2018-02-14T06:24:17.054Z,101.6342
2018-02-14T06:25:22.411Z,100.3738
2018-02-14T06:26:27.609Z,100.8785
2018-02-14T06:27:33.224Z,100.6274
2018-02-14T06:28:38.415Z,101.6342
2018-02-14T06:29:43.605Z,100.8785
2018-02-14T06:30:49.024Z,100.6274
2018-02-14T06:31:54.229Z,101.1295
2018-02-14T06:32:59.429Z,100.2073
2018-02-14T06:34:05.158Z,100.6274
2018-02-14T06:35:10.622Z,100.8785
2018-02-14T06:36:15.793Z,99.7026
2018-02-14T06:37:21.096Z,99.449
2018-02-14T06:38:26.568Z,100.6274
2018-02-14T06:39:31.376Z,100.2073
2018-02-14T06:40:36.564Z,99.9537
2018-02-14T06:41:41.760Z,100.4583
2018-02-14T06:42:47.195Z,100.6274
2018-02-14T06:43:52.690Z,99.449
2018-02-14T06:44:58.152Z,99.1979
2018-02-14T06:46:03.660Z,99.9537
2018-02-14T06:47:08.562Z,99.9537
2018-02-14T06:48:14.005Z,99.449
2018-02-14T06:49:19.493Z,99.7026
2018-02-14T06:50:25.010Z,100.2073
2018-02-14T06:51:30.270Z,100.6274
2018-02-14T06:52:35.463Z,100.4583
2018-02-14T06:53:41.390Z,100.2073
2018-02-14T06:54:46.975Z,100.2073
2018-02-14T06:55:52.456Z,99.9537
2018-02-14T06:56:57.940Z,100.6274
2018-02-14T06:58:03.426Z,99.9537
2018-02-14T06:59:08.632Z,99.1979
2018-02-14T07:00:13.538Z,99.1979
2018-02-14T07:01:19.253Z,100.4583
2018-02-14T07:02:24.736Z,100.2073
2018-02-14T07:03:30.664Z,100.2073
2018-02-14T07:04:36.214Z,99.7026
2018-02-14T07:05:41.389Z,99.9537
2018-02-14T07:06:46.900Z,100.4583
2018-02-14T07:07:52.368Z,100.6274
2018-02-14T07:08:57.559Z,100.2073
2018-02-14T07:10:03.013Z,99.9537
2018-02-14T07:11:07.916Z,99.7026
2018-02-14T07:12:12.559Z,99.7026
2018-02-14T07:13:18.359Z,99.7026
2018-02-14T07:14:23.301Z,99.9537
2018-02-14T07:15:29.361Z,98.9443
2018-02-14T07:16:34.831Z,99.1979
2018-02-14T07:17:40.093Z,99.1979
2018-02-14T07:18:46.008Z,98.9443
2018-02-14T07:19:51.197Z,99.9537
2018-02-14T07:20:56.690Z,99.7026
2018-02-14T07:22:02.509Z,99.7026
2018-02-14T07:23:07.615Z,98.6933
2018-02-14T07:24:12.525Z,98.9443
2018-02-14T07:25:18.530Z,101.1295
2018-02-14T07:26:24.188Z,99.7026
2018-02-14T07:27:29.732Z,99.449
2018-02-14T07:28:35.206Z,99.7026
2018-02-14T07:29:40.094Z,99.1979
2018-02-14T07:30:45.525Z,98.6933
2018-02-14T07:31:50.994Z,98.9443
2018-02-14T07:32:56.462Z,99.1979
2018-02-14T07:34:01.339Z,99.1979
2018-02-14T07:35:06.522Z,99.1979
2018-02-14T07:36:11.705Z,98.2731
2018-02-14T07:37:17.402Z,98.9443
2018-02-14T07:38:22.315Z,99.1979
2018-02-14T07:39:28.038Z,98.9443
2018-02-14T07:40:33.234Z,98.2731
2018-02-14T07:41:38.432Z,99.1979
2018-02-14T07:42:43.574Z,98.0221
2018-02-14T07:43:49.052Z,98.0221
2018-02-14T07:44:54.512Z,98.2731
2018-02-14T07:46:00.486Z,97.3483
2018-02-14T07:47:04.793Z,98.0221
2018-02-14T07:48:10.278Z,97.3483
2018-02-14T07:49:15.774Z,97.853
2018-02-14T07:50:20.975Z,97.853
2018-02-14T07:51:27.684Z,97.0973
2018-02-14T07:52:32.589Z,97.602
2018-02-14T07:53:38.073Z,97.853
2018-02-14T07:54:43.957Z,97.853
2018-02-14T07:55:49.417Z,98.6933
2018-02-14T07:56:54.900Z,98.2731
2018-02-14T07:58:00.713Z,98.9443
2018-02-14T07:59:05.610Z,97.853
2018-02-14T08:00:10.490Z,97.602
2018-02-14T08:01:16.206Z,98.2731
2018-02-14T08:02:21.396Z,97.853
2018-02-14T08:03:27.499Z,97.853
2018-02-14T08:04:33.162Z,97.853
2018-02-14T08:05:38.354Z,97.853
2018-02-14T08:06:43.796Z,97.0973
2018-02-14T08:07:48.405Z,97.602
2018-02-14T08:08:53.889Z,96.5926
2018-02-14T08:09:59.353Z,97.0973
2018-02-14T08:11:04.559Z,96.8463
2018-02-14T08:12:10.037Z,97.853
2018-02-14T08:13:15.690Z,97.0973
2018-02-14T08:14:20.869Z,96.3416
2018-02-14T08:15:41.047Z,97.0973
2018-02-14T08:16:46.515Z,96.8463
2018-02-14T08:17:51.981Z,96.8463
2018-02-14T08:18:57.502Z,96.5926
2018-02-14T08:20:02.707Z,96.5926
2018-02-14T08:21:07.039Z,96.3416
2018-02-14T08:22:11.940Z,96.3416
2018-02-14T08:23:17.416Z,96.3416
2018-02-14T08:24:22.335Z,96.8463
2018-02-14T08:25:28.361Z,95.8369
2018-02-14T08:26:33.544Z,96.0879
2018-02-14T08:27:39.181Z,96.5926
2018-02-14T08:28:44.659Z,95.5859
2018-02-14T08:29:49.541Z,95.5859
2018-02-14T08:30:54.701Z,95.5859
2018-02-14T08:31:59.890Z,94.9121
2018-02-14T08:33:04.790Z,95.1658
2018-02-14T08:34:10.041Z,94.6611
2018-02-14T08:35:15.256Z,94.9121
2018-02-14T08:36:20.145Z,94.9121
2018-02-14T08:37:25.584Z,94.6611
2018-02-14T08:38:31.050Z,94.4074
2018-02-14T08:39:36.575Z,94.6611
2018-02-14T08:40:41.185Z,94.4074
2018-02-14T08:41:46.382Z,94.1564
2018-02-14T08:42:51.823Z,94.6611
2018-02-14T08:43:57.282Z,94.6611
2018-02-14T08:45:02.195Z,94.6611
2018-02-14T08:46:07.535Z,95.4168
2018-02-14T08:47:12.732Z,95.1658
2018-02-14T08:48:17.924Z,93.9054
2018-02-14T08:49:23.378Z,93.1497
2018-02-14T08:50:28.854Z,94.1564
2018-02-14T08:51:34.281Z,93.6517
2018-02-14T08:52:39.740Z,93.9054
2018-02-14T08:53:44.652Z,93.4007
2018-02-14T08:54:50.458Z,93.4007
2018-02-14T08:55:55.115Z,92.4759
2018-02-14T08:57:00.604Z,92.896
2018-02-14T08:58:06.065Z,92.2249
2018-02-14T08:59:10.709Z,92.7296
2018-02-14T09:00:15.619Z,91.2181
2018-02-14T09:01:21.374Z,91.7202
2018-02-14T09:02:26.844Z,92.2249
2018-02-14T09:03:32.284Z,90.9645
2018-02-14T09:04:37.482Z,91.9738
2018-02-14T09:05:42.685Z,91.4692
2018-02-14T09:06:48.162Z,91.9738
2018-02-14T09:07:53.634Z,91.9738
2018-02-14T09:08:59.017Z,91.4692
2018-02-14T09:10:04.469Z,91.9738
2018-02-14T09:11:09.668Z,91.4692
2018-02-14T09:12:15.146Z,92.4759
2018-02-14T09:13:20.576Z,91.7202
2018-02-14T09:14:25.476Z,91.9738
2018-02-14T09:15:30.884Z,90.4624
2018-02-14T09:16:35.797Z,91.7202
2018-02-14T09:17:40.691Z,91.9738
2018-02-14T09:18:45.652Z,92.2249
2018-02-14T09:19:51.226Z,91.2181
2018-02-14T09:20:56.138Z,92.2249
2018-02-14T09:22:01.079Z,90.7135
2018-02-14T09:23:06.017Z,91.4692
2018-02-14T09:24:11.472Z,91.4692
2018-02-14T09:25:17.209Z,91.2181
2018-02-14T09:26:22.616Z,91.9738
2018-02-14T09:27:28.258Z,90.9645
2018-02-14T09:28:33.735Z,90.9645
2018-02-14T09:29:38.641Z,91.2181
2018-02-14T09:30:44.377Z,91.2181
2018-02-14T09:31:49.883Z,91.4692
2018-02-14T09:32:54.503Z,91.7202
2018-02-14T09:33:59.370Z,91.4692
2018-02-14T09:35:04.276Z,91.7202
2018-02-14T09:36:09.760Z,91.7202
2018-02-14T09:37:15.436Z,92.4759
2018-02-14T09:38:21.051Z,91.2181
2018-02-14T09:39:41.165Z,92.7296
2018-02-14T09:40:46.636Z,92.2249
2018-02-14T09:41:51.821Z,92.2249
2018-02-14T09:42:57.261Z,91.4692
2018-02-14T09:44:02.339Z,92.2249
2018-02-14T09:45:07.521Z,91.9738
2018-02-14T09:46:12.150Z,91.4692
2018-02-14T09:47:16.870Z,91.7202
2018-02-14T09:48:22.334Z,90.7135
2018-02-14T09:49:28.024Z,90.7135
2018-02-14T09:50:33.477Z,90.7135
2018-02-14T09:51:38.624Z,90.7135
2018-02-14T09:52:44.093Z,90.7135
2018-02-14T09:53:49.541Z,90.2088
2018-02-14T09:54:55.280Z,90.0423
2018-02-14T09:56:00.466Z,89.7887
2018-02-14T09:57:04.793Z,90.4624
2018-02-14T09:58:09.986Z,89.7887
2018-02-14T09:59:14.890Z,90.2088
2018-02-14T10:00:20.073Z,90.9645
2018-02-14T10:01:25.595Z,90.9645
2018-02-14T10:02:31.055Z,91.7202
2018-02-14T10:03:36.618Z,91.4692
2018-02-14T10:04:41.519Z,91.9738
2018-02-14T10:05:47.011Z,91.2181
2018-02-14T10:06:52.445Z,91.4692
2018-02-14T10:07:57.925Z,91.2181
2018-02-14T10:09:03.405Z,91.9738
2018-02-14T10:10:08.835Z,91.4692
2018-02-14T10:11:14.342Z,91.4692
2018-02-14T10:12:19.798Z,91.9738
2018-02-14T10:13:24.778Z,91.4692
2018-02-14T10:14:29.706Z,91.7202
2018-02-14T10:15:35.147Z,92.2249
2018-02-14T10:16:40.326Z,91.2181
2018-02-14T10:17:45.286Z,91.9738
2018-02-14T10:18:50.208Z,91.2181
2018-02-14T10:19:55.116Z,92.2249
2018-02-14T10:21:00.586Z,91.7202
2018-02-14T10:22:06.131Z,91.7202
2018-02-14T10:23:11.362Z,91.9738
2018-02-14T10:24:16.538Z,90.9645
2018-02-14T10:25:21.983Z,91.4692
2018-02-14T10:26:27.160Z,91.9738
2018-02-14T10:27:32.418Z,91.7202
2018-02-14T10:28:37.888Z,90.7135
2018-02-14T10:29:42.505Z,91.2181
2018-02-14T10:30:47.730Z,91.2181
2018-02-14T10:31:53.209Z,90.4624
2018-02-14T10:32:58.575Z,90.9645
2018-02-14T10:34:04.069Z,91.4692
2018-02-14T10:35:09.521Z,92.2249
2018-02-14T10:36:13.860Z,92.2249
2018-02-14T10:37:19.009Z,92.4759
2018-02-14T10:38:24.481Z,91.2181
2018-02-14T10:39:30.058Z,91.4692
2018-02-14T10:40:35.256Z,91.4692
2018-02-14T10:41:40.436Z,91.7202
2018-02-14T10:42:46.178Z,92.2249
2018-02-14T10:43:51.664Z,91.4692
2018-02-14T10:44:56.860Z,90.9645
2018-02-14T10:46:02.097Z,91.4692
2018-02-14T10:47:07.571Z,90.0423
2018-02-14T10:48:13.214Z,91.4692
2018-02-14T10:49:19.185Z,90.9645
2018-02-14T10:50:24.765Z,90.4624
2018-02-14T10:51:29.894Z,91.4692
2018-02-14T10:52:35.345Z,90.9645
2018-02-14T10:53:40.807Z,91.4692
2018-02-14T10:54:46.576Z,91.7202
2018-02-14T10:55:50.900Z,91.2181
2018-02-14T10:56:56.369Z,90.9645
2018-02-14T10:58:01.307Z,91.4692
2018-02-14T10:59:06.493Z,91.4692
2018-02-14T11:00:11.118Z,91.4692
2018-02-14T11:01:16.561Z,91.9738
2018-02-14T11:02:22.029Z,92.4759
2018-02-14T11:03:27.807Z,91.9738
2018-02-14T11:04:32.730Z,92.4759
2018-02-14T11:05:37.635Z,92.2249
2018-02-14T11:06:42.493Z,91.9738
2018-02-14T11:07:47.956Z,93.1497
2018-02-14T11:08:53.431Z,92.4759
2018-02-14T11:09:59.089Z,92.896
2018-02-14T11:11:03.996Z,91.9738
2018-02-14T11:12:09.475Z,92.4759
2018-02-14T11:13:14.907Z,93.4007
2018-02-14T11:14:19.833Z,91.9738
2018-02-14T11:15:39.953Z,91.7202
2018-02-14T11:16:45.148Z,92.645
2018-02-14T11:17:50.610Z,92.4759
2018-02-14T11:18:55.838Z,92.645
2018-02-14T11:20:00.741Z,91.7202
2018-02-14T11:21:05.104Z,92.896
2018-02-14T11:22:10.641Z,92.896
2018-02-14T11:23:16.109Z,92.2249
2018-02-14T11:24:21.584Z,92.4759
2018-02-14T11:25:26.587Z,91.9738
2018-02-14T11:26:31.778Z,92.896
2018-02-14T11:27:37.503Z,93.1497
2018-02-14T11:28:42.677Z,92.2249
2018-02-14T11:29:47.329Z,92.896
2018-02-14T11:30:52.864Z,92.645
2018-02-14T11:31:58.327Z,92.896
2018-02-14T11:33:03.804Z,92.645
2018-02-14T11:34:09.265Z,92.645
2018-02-14T11:35:14.479Z,93.4007
2018-02-14T11:36:19.399Z,93.1497
2018-02-14T11:37:24.846Z,92.645
2018-02-14T11:38:30.668Z,92.2249
2018-02-14T11:39:36.214Z,91.9738
2018-02-14T11:40:41.620Z,91.9738
2018-02-14T11:41:46.813Z,91.7202
2018-02-14T11:42:52.539Z,91.7202
2018-02-14T11:43:57.470Z,91.4692
2018-02-14T11:45:02.934Z,91.2181
2018-02-14T11:46:08.103Z,91.2181
2018-02-14T11:47:13.559Z,91.4692
2018-02-14T11:48:18.734Z,91.2181
2018-02-14T11:49:24.639Z,91.7202
2018-02-14T11:50:30.066Z,90.7135
2018-02-14T11:51:35.903Z,90.7135
2018-02-14T11:52:40.690Z,90.9645
2018-02-14T11:53:46.171Z,90.7135
2018-02-14T11:54:51.920Z,91.2181
2018-02-14T11:55:57.111Z,90.9645
2018-02-14T11:57:02.304Z,91.2181
2018-02-14T11:58:07.163Z,90.2088
2018-02-14T11:59:12.092Z,91.2181
2018-02-14T12:00:17.000Z,91.2181
2018-02-14T12:01:22.144Z,90.9645
2018-02-14T12:02:27.331Z,90.7135
2018-02-14T12:03:33.058Z,90.4624
2018-02-14T12:04:38.528Z,90.9645
2018-02-14T12:05:43.701Z,90.4624
2018-02-14T12:06:49.117Z,90.7135
2018-02-14T12:07:54.590Z,90.9645
2018-02-14T12:09:00.118Z,90.4624
2018-02-14T12:10:05.585Z,90.9645
2018-02-14T12:11:10.997Z,89.7887
2018-02-14T12:12:16.451Z,90.4624
2018-02-14T12:13:22.174Z,90.2088
2018-02-14T12:14:27.370Z,89.5376
2018-02-14T12:15:33.150Z,89.9578
2018-02-14T12:16:38.611Z,89.5376
2018-02-14T12:17:44.117Z,89.2866
2018-02-14T12:18:49.972Z,89.9578
2018-02-14T12:19:55.154Z,89.5376
2018-02-14T12:21:00.355Z,89.7887
2018-02-14T12:22:05.340Z,89.5376
2018-02-14T12:23:10.441Z,89.7887
2018-02-14T12:24:15.362Z,89.2866
2018-02-14T12:25:21.149Z,89.7887
2018-02-14T12:26:26.062Z,89.7887
2018-02-14T12:27:31.590Z,89.9578
2018-02-14T12:28:37.254Z,89.7887
2018-02-14T12:29:42.624Z,89.2866
2018-02-14T12:30:48.072Z,89.5376
2018-02-14T12:31:53.483Z,90.4624
2018-02-14T12:32:59.028Z,90.4624
2018-02-14T12:34:04.735Z,89.9578
2018-02-14T12:35:09.632Z,90.7135
2018-02-14T12:36:14.509Z,89.7887
2018-02-14T12:37:20.363Z,89.7887
2018-02-14T12:38:25.557Z,90.7135
2018-02-14T12:39:31.028Z,89.7887
2018-02-14T12:40:36.196Z,90.2088
2018-02-14T12:41:41.686Z,89.9578
2018-02-14T12:42:47.431Z,90.2088
2018-02-14T12:43:52.637Z,90.2088
2018-02-14T12:44:58.109Z,90.7135
2018-02-14T12:46:03.275Z,90.7135
2018-02-14T12:47:08.175Z,90.2088
2018-02-14T12:48:13.366Z,90.2088
2018-02-14T12:49:19.084Z,90.4624
2018-02-14T12:50:24.552Z,89.7887
2018-02-14T12:51:30.000Z,90.7135
2018-02-14T12:52:34.914Z,90.9645
2018-02-14T12:53:40.381Z,89.5376
2018-02-14T12:54:45.556Z,89.2866
2018-02-14T12:55:50.468Z,90.7135
2018-02-14T12:56:55.667Z,90.7135
2018-02-14T12:58:00.828Z,90.4624
2018-02-14T12:59:05.452Z,91.4692
2018-02-14T13:00:10.632Z,89.9578
2018-02-14T13:01:16.353Z,90.2088